Time,TemperatureF,DewpointF,PressureIn,WindDirection,WindDirectionDegrees,WindSpeedMPH,WindSpeedGustMPH,Humidity,HourlyPrecipIn,Conditions,Clouds,dailyrainin,SoftwareType,DateUTC
2013-09-20 00:00:00,55.0,35.2,29.56,WNW,292,0.0,5.0,47,0.00,CLR,,0.00,WeatherDisplay:10.37,2013-09-20 07:00:00,
2013-09-20 00:05:00,55.0,35.2,29.53,WNW,292,0.0,3.0,47,0.00,CLR,,0.00,WeatherDisplay:10.37,2013-09-20 07:05:00,
2013-09-20 00:10:00,55.0,35.2,29.53,WNW,292,0.0,4.0,47,0.00,CLR,,0.00,WeatherDisplay:10.37,2013-09-20 07:10:00,
2013-09-20 00:15:00,54.9,35.5,29.53,WNW,292,0.0,3.0,48,0.00,CLR,,0.00,WeatherDisplay:10.37,2013-09-20 07:15:00,
2013-09-20 00:20:00,54.9,35.6,29.53,WNW,292,0.0,0.0,48,0.00,CLR,,0.00,WeatherDisplay:10.37,2013-09-20 07:20:00,
2013-09-20 00:30:00,54.9,35.5,29.53,WNW,292,0.0,2.0,48,0.00,CLR,,0.00,WeatherDisplay:10.37,2013-09-20 07:30:00,
2013-09-20 00:35:00,54.8,35.5,29.53,WNW,292,0.0,2.0,48,0.00,CLR,,0.00,WeatherDisplay:10.37,2013-09-20 07:35:00,
2013-09-20 00:40:00,54.9,35.5,29.53,WNW,292,0.0,0.0,48,0.00,CLR,,0.00,WeatherDisplay:10.37,2013-09-20 07:40:00,
2013-09-20 00:45:00,54.9,35.5,29.53,WNW,292,0.0,2.0,48,0.00,CLR,,0.00,WeatherDisplay:10.37,2013-09-20 07:45:00,
2013-09-20 00:50:00,54.9,36.0,29.53,WNW,292,0.0,0.0,49,0.00,CLR,,0.00,WeatherDisplay:10.37,2013-09-20 07:50:00,
2013-09-20 00:55:00,54.9,36.0,29.53,WNW,292,0.0,0.0,49,0.00,CLR,,0.00,WeatherDisplay:10.37,2013-09-20 07:55:00,
2013-09-20 01:00:00,54.7,35.9,29.53,NE,34,0.0,5.0,49,0.00,CLR,,0.00,WeatherDisplay:10.37,2013-09-20 08:00:00,
2013-09-20 01:05:00,54.7,35.4,29.56,ENE,68,0.0,3.0,48,0.00,CLR,,0.00,WeatherDisplay:10.37,2013-09-20 08:05:00,
2013-09-20 01:10:00,54.7,35.9,29.56,ENE,68,1.0,4.0,49,0.00,CLR,,0.00,WeatherDisplay:10.37,2013-09-20 08:10:00,
2013-09-20 01:15:00,54.7,35.9,29.56,ENE,70,0.0,5.0,49,0.00,CLR,,0.00,WeatherDisplay:10.37,2013-09-20 08:15:00,
2013-09-20 01:20:00,54.7,35.9,29.56,NE,43,0.0,0.0,49,0.00,CLR,,0.00,WeatherDisplay:10.37,2013-09-20 08:20:00,
2013-09-20 01:25:00,54.5,35.7,29.56,NNE,22,0.0,0.0,49,0.00,CLR,,0.00,WeatherDisplay:10.37,2013-09-20 08:25:00,
2013-09-20 01:30:00,54.4,35.6,29.56,NNE,22,0.0,0.0,49,0.00,CLR,,0.00,WeatherDisplay:10.37,2013-09-20 08:30:00,
2013-09-20 01:35:00,54.3,35.5,29.56,NE,42,3.0,7.0,49,0.00,CLR,,0.00,WeatherDisplay:10.37,2013-09-20 08:35:00,
2013-09-20 01:40:00,54.5,35.7,29.56,ENE,61,0.0,0.0,49,0.00,CLR,,0.00,WeatherDisplay:10.37,2013-09-20 08:40:00,
2013-09-20 01:45:00,54.5,36.2,29.56,ENE,68,0.0,3.0,50,0.00,CLR,,0.00,WeatherDisplay:10.37,2013-09-20 08:45:00,
2013-09-20 01:50:00,54.5,35.7,29.56,ENE,68,0.0,5.0,49,0.00,CLR,,0.00,WeatherDisplay:10.37,2013-09-20 08:50:00,
2013-09-20 01:55:00,54.3,36.1,29.56,NE,50,2.0,8.0,50,0.00,CLR,,0.00,WeatherDisplay:10.37,2013-09-20 08:55:00,
2013-09-20 02:00:00,54.3,36.1,29.56,NNE,26,0.0,4.0,50,0.00,CLR,,0.00,WeatherDisplay:10.37,2013-09-20 09:00:00,
2013-09-20 02:05:00,54.3,35.5,29.53,NE,45,1.0,6.0,49,0.00,CLR,,0.00,WeatherDisplay:10.37,2013-09-20 09:05:00,
2013-09-20 02:10:00,54.3,36.1,29.53,ENE,69,0.0,5.0,50,0.00,CLR,,0.00,WeatherDisplay:10.37,2013-09-20 09:10:00,
2013-09-20 02:15:00,54.3,36.1,29.53,East,88,0.0,3.0,50,0.00,CLR,,0.00,WeatherDisplay:10.37,2013-09-20 09:15:00,
2013-09-20 02:20:00,54.3,36.1,29.53,East,90,0.0,3.0,50,0.00,CLR,,0.00,WeatherDisplay:10.37,2013-09-20 09:20:00,
2013-09-20 02:25:00,54.3,36.6,29.53,ESE,114,0.0,4.0,51,0.00,CLR,,0.00,WeatherDisplay:10.37,2013-09-20 09:25:00,
2013-09-20 02:30:00,54.3,36.1,29.53,SW,220,0.0,6.0,50,0.00,CLR,,0.00,WeatherDisplay:10.37,2013-09-20 09:30:00,
2013-09-20 02:35:00,54.3,36.6,29.53,NW,305,2.0,5.0,51,0.00,CLR,,0.00,WeatherDisplay:10.37,2013-09-20 09:35:00,
2013-09-20 02:40:00,54.3,36.6,29.53,North,357,2.0,5.0,51,0.00,CLR,,0.00,WeatherDisplay:10.37,2013-09-20 09:40:00,
2013-09-20 02:45:00,54.1,36.4,29.53,West,265,2.0,5.0,51,0.00,CLR,,0.00,WeatherDisplay:10.37,2013-09-20 09:45:00,
2013-09-20 02:50:00,54.1,37.4,29.53,WSW,240,1.0,5.0,53,0.00,CLR,,0.00,WeatherDisplay:10.37,2013-09-20 09:50:00,
2013-09-20 03:00:00,54.0,36.7,29.53,ENE,73,2.0,5.0,52,0.00,CLR,,0.00,WeatherDisplay:10.37,2013-09-20 10:00:00,
2013-09-20 03:05:00,54.0,37.2,29.53,East,90,1.0,5.0,53,0.00,CLR,,0.00,WeatherDisplay:10.37,2013-09-20 10:05:00,
2013-09-20 03:10:00,54.0,37.7,29.53,East,90,0.0,5.0,54,0.00,CLR,,0.00,WeatherDisplay:10.37,2013-09-20 10:10:00,
2013-09-20 03:15:00,54.0,38.2,29.53,East,90,1.0,5.0,55,0.00,CLR,,0.00,WeatherDisplay:10.37,2013-09-20 10:15:00,
2013-09-20 03:20:00,54.2,38.4,29.53,East,90,0.0,4.0,55,0.00,CLR,,0.00,WeatherDisplay:10.37,2013-09-20 10:20:00,
2013-09-20 03:25:00,54.3,38.9,29.53,East,88,1.0,6.0,56,0.00,CLR,,0.00,WeatherDisplay:10.37,2013-09-20 10:25:00,
2013-09-20 03:30:00,54.3,39.4,29.53,East,87,0.0,6.0,57,0.00,CLR,,0.00,WeatherDisplay:10.37,2013-09-20 10:30:00,
2013-09-20 03:35:00,54.3,39.4,29.53,NE,47,2.0,6.0,57,0.00,CLR,,0.00,WeatherDisplay:10.37,2013-09-20 10:35:00,
2013-09-20 03:40:00,54.5,39.6,29.53,NE,53,1.0,5.0,57,0.00,CLR,,0.00,WeatherDisplay:10.37,2013-09-20 10:40:00,
2013-09-20 03:50:00,54.7,39.7,29.53,ESE,104,1.0,5.0,57,0.00,CLR,,0.00,WeatherDisplay:10.37,2013-09-20 10:50:00,
2013-09-20 03:55:00,54.9,40.4,29.53,ENE,57,0.0,5.0,58,0.00,CLR,,0.00,WeatherDisplay:10.37,2013-09-20 10:55:00,
2013-09-20 04:00:00,54.9,40.8,29.53,NNE,13,2.0,6.0,59,0.00,CLR,,0.00,WeatherDisplay:10.37,2013-09-20 11:00:00,
2013-09-20 04:05:00,54.9,40.4,29.53,NE,49,0.0,3.0,58,0.00,CLR,,0.00,WeatherDisplay:10.37,2013-09-20 11:05:00,
2013-09-20 04:10:00,54.9,40.8,29.53,NNE,17,0.0,4.0,59,0.00,CLR,,0.00,WeatherDisplay:10.37,2013-09-20 11:10:00,
2013-09-20 04:15:00,54.8,40.3,29.53,NNW,331,0.0,5.0,58,0.00,CLR,,0.00,WeatherDisplay:10.37,2013-09-20 11:15:00,
2013-09-20 04:20:00,54.9,40.4,29.53,NE,46,0.0,3.0,58,0.00,CLR,,0.00,WeatherDisplay:10.37,2013-09-20 11:20:00,
2013-09-20 04:25:00,54.9,40.4,29.53,ENE,67,0.0,5.0,58,0.00,CLR,,0.00,WeatherDisplay:10.37,2013-09-20 11:25:00,
2013-09-20 04:30:00,54.9,40.4,29.53,ENE,68,0.0,4.0,58,0.00,CLR,,0.00,WeatherDisplay:10.37,2013-09-20 11:30:00,
2013-09-20 04:35:00,55.0,40.5,29.53,ENE,60,2.0,6.0,58,0.00,CLR,,0.00,WeatherDisplay:10.37,2013-09-20 11:35:00,
2013-09-20 04:40:00,55.0,41.0,29.53,ENE,61,1.0,5.0,59,0.00,CLR,,0.00,WeatherDisplay:10.37,2013-09-20 11:40:00,
2013-09-20 04:45:00,55.2,40.7,29.53,ENE,68,1.0,5.0,58,0.00,CLR,,0.00,WeatherDisplay:10.37,2013-09-20 11:45:00,
2013-09-20 04:50:00,55.2,41.1,29.53,ENE,68,0.0,0.0,59,0.00,CLR,,0.00,WeatherDisplay:10.37,2013-09-20 11:50:00,
2013-09-20 04:55:00,55.4,41.3,29.53,ENE,68,0.0,3.0,59,0.00,CLR,,0.00,WeatherDisplay:10.37,2013-09-20 11:55:00,
2013-09-20 05:00:00,55.4,41.3,29.53,ENE,68,0.0,3.0,59,0.00,CLR,,0.00,WeatherDisplay:10.37,2013-09-20 12:00:00,
2013-09-20 05:05:00,55.6,41.0,29.53,ENE,68,2.0,5.0,58,0.00,CLR,,0.00,WeatherDisplay:10.37,2013-09-20 12:05:00,
2013-09-20 05:10:00,55.6,41.5,29.53,ENE,72,1.0,6.0,59,0.00,CLR,,0.00,WeatherDisplay:10.37,2013-09-20 12:10:00,
2013-09-20 05:15:00,55.6,41.5,29.53,East,82,0.0,4.0,59,0.00,CLR,,0.00,WeatherDisplay:10.37,2013-09-20 12:15:00,
2013-09-20 05:20:00,55.6,41.9,29.53,East,90,0.0,3.0,60,0.00,CLR,,0.00,WeatherDisplay:10.37,2013-09-20 12:20:00,
2013-09-20 05:25:00,55.8,42.1,29.53,East,90,0.0,2.0,60,0.00,CLR,,0.00,WeatherDisplay:10.37,2013-09-20 12:25:00,
2013-09-20 05:30:00,55.8,42.1,29.53,East,90,0.0,5.0,60,0.00,CLR,,0.00,WeatherDisplay:10.37,2013-09-20 12:30:00,
2013-09-20 05:35:00,55.8,42.5,29.53,East,90,0.0,5.0,61,0.00,CLR,,0.00,WeatherDisplay:10.37,2013-09-20 12:35:00,
2013-09-20 05:40:00,55.9,42.7,29.53,East,90,0.0,3.0,61,0.00,CLR,,0.00,WeatherDisplay:10.37,2013-09-20 12:40:00,
2013-09-20 05:45:00,55.9,43.1,29.53,East,90,2.0,3.0,62,0.00,CLR,,0.00,WeatherDisplay:10.37,2013-09-20 12:45:00,
2013-09-20 05:50:00,56.1,43.3,29.53,East,90,0.0,4.0,62,0.00,CLR,,0.00,WeatherDisplay:10.37,2013-09-20 12:50:00,
2013-09-20 05:55:00,56.3,43.4,29.53,East,90,1.0,5.0,62,0.00,CLR,,0.00,WeatherDisplay:10.37,2013-09-20 12:55:00,
2013-09-20 06:00:00,56.5,43.6,29.53,East,90,0.0,3.0,62,0.00,CLR,,0.00,WeatherDisplay:10.37,2013-09-20 13:00:00,
2013-09-20 06:05:00,56.5,43.6,29.53,East,90,0.0,0.0,62,0.00,CLR,,0.00,WeatherDisplay:10.37,2013-09-20 13:05:00,
2013-09-20 06:10:00,56.5,43.7,29.53,East,90,0.0,0.0,62,0.00,CLR,,0.00,WeatherDisplay:10.37,2013-09-20 13:10:00,
2013-09-20 06:15:00,56.7,44.2,29.53,East,90,0.0,3.0,63,0.00,CLR,,0.00,WeatherDisplay:10.37,2013-09-20 13:15:00,
2013-09-20 06:20:00,56.7,44.2,29.56,East,90,3.0,5.0,63,0.00,CLR,,0.00,WeatherDisplay:10.37,2013-09-20 13:20:00,
2013-09-20 06:25:00,56.7,43.8,29.56,East,90,0.0,5.0,62,0.00,CLR,,0.00,WeatherDisplay:10.37,2013-09-20 13:25:00,
2013-09-20 06:30:00,56.8,44.0,29.56,East,90,0.0,3.0,62,0.00,CLR,,0.00,WeatherDisplay:10.37,2013-09-20 13:30:00,
2013-09-20 06:35:00,56.8,44.4,29.53,East,89,0.0,6.0,63,0.00,CLR,,0.00,WeatherDisplay:10.37,2013-09-20 13:35:00,
2013-09-20 06:40:00,56.7,43.8,29.53,East,89,1.0,4.0,62,0.00,CLR,,0.00,WeatherDisplay:10.37,2013-09-20 13:40:00,
2013-09-20 06:45:00,56.7,43.8,29.53,East,90,1.0,3.0,62,0.00,CLR,,0.00,WeatherDisplay:10.37,2013-09-20 13:45:00,
2013-09-20 06:50:00,56.8,44.0,29.53,East,90,0.0,4.0,62,0.00,CLR,,0.00,WeatherDisplay:10.37,2013-09-20 13:50:00,
2013-09-20 06:55:00,56.8,43.9,29.53,East,90,0.0,3.0,62,0.00,CLR,,0.00,WeatherDisplay:10.37,2013-09-20 13:55:00,
2013-09-20 07:00:00,56.8,44.0,29.53,East,90,0.0,0.0,62,0.00,CLR,,0.00,WeatherDisplay:10.37,2013-09-20 14:00:00,
2013-09-20 07:05:00,56.8,44.0,29.56,East,90,0.0,0.0,62,0.00,CLR,,0.00,WeatherDisplay:10.37,2013-09-20 14:05:00,
2013-09-20 07:10:00,56.8,44.0,29.56,East,90,0.0,0.0,62,0.00,CLR,,0.00,WeatherDisplay:10.37,2013-09-20 14:10:00,
2013-09-20 07:15:00,56.8,44.0,29.56,East,90,0.0,5.0,62,0.00,CLR,,0.00,WeatherDisplay:10.37,2013-09-20 14:15:00,
2013-09-20 07:20:00,56.8,44.0,29.56,East,90,0.0,3.0,62,0.00,CLR,,0.00,WeatherDisplay:10.37,2013-09-20 14:20:00,
2013-09-20 07:25:00,56.7,44.2,29.56,East,81,0.0,3.0,63,0.00,CLR,,0.00,WeatherDisplay:10.37,2013-09-20 14:25:00,
2013-09-20 07:30:00,56.8,44.4,29.56,ENE,70,0.0,3.0,63,0.00,CLR,,0.00,WeatherDisplay:10.37,2013-09-20 14:30:00,
2013-09-20 07:35:00,56.8,44.8,29.56,ENE,68,0.0,3.0,64,0.00,CLR,,0.00,WeatherDisplay:10.37,2013-09-20 14:35:00,
2013-09-20 07:40:00,57.0,44.5,29.56,ENE,68,3.0,5.0,63,0.00,CLR,,0.00,WeatherDisplay:10.37,2013-09-20 14:40:00,
2013-09-20 07:45:00,56.8,44.8,29.56,East,96,0.0,6.0,64,0.00,CLR,,0.00,WeatherDisplay:10.37,2013-09-20 14:45:00,
2013-09-20 07:50:00,56.8,44.8,29.56,ESE,109,0.0,5.0,64,0.00,CLR,,0.00,WeatherDisplay:10.37,2013-09-20 14:50:00,
2013-09-20 08:00:00,57.2,45.1,29.56,NW,313,0.0,5.0,64,0.00,CLR,,0.00,WeatherDisplay:10.37,2013-09-20 15:00:00,
2013-09-20 08:05:00,57.2,45.1,29.59,WSW,246,0.0,5.0,64,0.00,CLR,,0.00,WeatherDisplay:10.37,2013-09-20 15:05:00,
2013-09-20 08:10:00,57.4,45.4,29.59,SW,225,0.0,3.0,64,0.00,CLR,,0.00,WeatherDisplay:10.37,2013-09-20 15:10:00,
2013-09-20 08:15:00,57.7,45.6,29.59,SW,225,0.0,4.0,64,0.00,CLR,,0.00,WeatherDisplay:10.37,2013-09-20 15:15:00,
2013-09-20 08:20:00,58.0,45.9,29.56,SW,225,1.0,4.0,64,0.00,CLR,,0.00,WeatherDisplay:10.37,2013-09-20 15:20:00,
2013-09-20 08:25:00,58.3,45.7,29.56,SW,225,0.0,3.0,63,0.00,CLR,,0.00,WeatherDisplay:10.37,2013-09-20 15:25:00,
2013-09-20 08:30:00,58.3,45.3,29.56,SW,225,0.0,5.0,62,0.00,CLR,,0.00,WeatherDisplay:10.37,2013-09-20 15:30:00,
2013-09-20 08:35:00,58.3,45.3,29.59,SW,232,0.0,4.0,62,0.00,CLR,,0.00,WeatherDisplay:10.37,2013-09-20 15:35:00,
2013-09-20 08:40:00,58.1,44.7,29.59,WSW,243,0.0,4.0,61,0.00,CLR,,0.00,WeatherDisplay:10.37,2013-09-20 15:40:00,
2013-09-20 08:45:00,58.3,44.9,29.59,WSW,248,0.0,3.0,61,0.00,CLR,,0.00,WeatherDisplay:10.37,2013-09-20 15:45:00,
2013-09-20 08:50:00,58.3,44.9,29.59,WNW,299,0.0,4.0,61,0.00,CLR,,0.00,WeatherDisplay:10.37,2013-09-20 15:50:00,
2013-09-20 08:55:00,57.9,44.5,29.59,NNE,31,2.0,6.0,61,0.00,CLR,,0.00,WeatherDisplay:10.37,2013-09-20 15:55:00,
2013-09-20 09:00:00,58.1,44.3,29.59,NE,52,0.0,3.0,60,0.00,CLR,,0.00,WeatherDisplay:10.37,2013-09-20 16:00:00,
2013-09-20 09:05:00,58.1,44.3,29.59,North,355,0.0,4.0,60,0.00,CLR,,0.00,WeatherDisplay:10.37,2013-09-20 16:05:00,
2013-09-20 09:10:00,58.1,44.7,29.59,West,276,0.0,5.0,61,0.00,CLR,,0.00,WeatherDisplay:10.37,2013-09-20 16:10:00,
2013-09-20 09:15:00,57.9,44.5,29.59,West,270,0.0,5.0,61,0.00,CLR,,0.00,WeatherDisplay:10.37,2013-09-20 16:15:00,
2013-09-20 09:20:00,57.6,43.9,29.59,West,270,1.0,4.0,60,0.00,CLR,,0.00,WeatherDisplay:10.37,2013-09-20 16:20:00,
2013-09-20 09:25:00,57.7,44.4,29.59,West,270,0.0,3.0,61,0.00,CLR,,0.00,WeatherDisplay:10.37,2013-09-20 16:25:00,
2013-09-20 09:30:00,57.7,44.8,29.59,West,270,0.0,3.0,62,0.00,CLR,,0.00,WeatherDisplay:10.37,2013-09-20 16:30:00,
2013-09-20 09:35:00,57.9,44.9,29.59,West,270,0.0,3.0,62,0.00,CLR,,0.00,WeatherDisplay:10.37,2013-09-20 16:35:00,
2013-09-20 09:40:00,58.1,45.1,29.59,West,270,0.0,5.0,62,0.00,CLR,,0.00,WeatherDisplay:10.37,2013-09-20 16:40:00,
2013-09-20 09:45:00,58.1,45.6,29.59,West,270,0.0,5.0,63,0.00,CLR,,0.00,WeatherDisplay:10.37,2013-09-20 16:45:00,
2013-09-20 09:50:00,58.3,45.3,29.62,West,270,1.0,5.0,62,0.00,CLR,,0.00,WeatherDisplay:10.37,2013-09-20 16:50:00,
2013-09-20 09:55:00,58.3,45.3,29.62,West,270,0.0,5.0,62,0.00,CLR,,0.00,WeatherDisplay:10.37,2013-09-20 16:55:00,
2013-09-20 10:00:00,58.5,45.5,29.62,West,270,0.0,5.0,62,0.00,CLR,,0.00,WeatherDisplay:10.37,2013-09-20 17:00:00,
2013-09-20 10:05:00,59.1,45.6,29.62,West,270,0.0,5.0,61,0.00,CLR,,0.00,WeatherDisplay:10.37,2013-09-20 17:05:00,
2013-09-20 10:10:00,59.2,45.7,29.62,West,263,0.0,6.0,61,0.00,CLR,,0.00,WeatherDisplay:10.37,2013-09-20 17:10:00,
2013-09-20 10:20:00,59.5,45.2,29.62,NNW,333,0.0,5.0,59,0.00,CLR,,0.00,WeatherDisplay:10.37,2013-09-20 17:20:00,
2013-09-20 10:25:00,60.0,45.6,29.62,NE,52,0.0,3.0,59,0.00,CLR,,0.00,WeatherDisplay:10.37,2013-09-20 17:25:00,
2013-09-20 10:30:00,60.6,45.8,29.62,SSE,153,0.0,3.0,58,0.00,CLR,,0.00,WeatherDisplay:10.37,2013-09-20 17:30:00,
2013-09-20 10:35:00,61.0,45.6,29.62,South,180,0.0,3.0,57,0.00,CLR,,0.00,WeatherDisplay:10.37,2013-09-20 17:35:00,
2013-09-20 10:40:00,61.0,45.2,29.62,South,180,0.0,3.0,56,0.00,CLR,,0.00,WeatherDisplay:10.37,2013-09-20 17:40:00,
2013-09-20 10:45:00,61.5,45.7,29.62,SSW,202,0.0,3.0,56,0.00,CLR,,0.00,WeatherDisplay:10.37,2013-09-20 17:45:00,
2013-09-20 10:50:00,61.9,45.5,29.62,WSW,254,1.0,3.0,55,0.00,CLR,,0.00,WeatherDisplay:10.37,2013-09-20 17:50:00,
2013-09-20 10:55:00,63.1,46.2,29.62,West,270,0.0,3.0,54,0.00,CLR,,0.00,WeatherDisplay:10.37,2013-09-20 17:55:00,
2013-09-20 11:00:00,62.8,44.9,29.62,West,270,0.0,3.0,52,0.00,CLR,,0.00,WeatherDisplay:10.37,2013-09-20 18:00:00,
2013-09-20 11:05:00,63.1,45.2,29.62,West,270,1.0,3.0,52,0.00,CLR,,0.00,WeatherDisplay:10.37,2013-09-20 18:05:00,
2013-09-20 11:10:00,63.3,44.9,29.62,West,270,0.0,4.0,51,0.00,CLR,,0.00,WeatherDisplay:10.37,2013-09-20 18:10:00,
2013-09-20 11:15:00,63.2,44.3,29.62,West,270,0.0,3.0,50,0.00,CLR,,0.00,WeatherDisplay:10.37,2013-09-20 18:15:00,
2013-09-20 11:20:00,63.1,44.2,29.62,West,260,0.0,4.0,50,0.00,CLR,,0.00,WeatherDisplay:10.37,2013-09-20 18:20:00,
2013-09-20 11:25:00,63.9,44.9,29.62,SW,236,0.0,5.0,50,0.00,CLR,,0.00,WeatherDisplay:10.37,2013-09-20 18:25:00,
2013-09-20 11:30:00,63.7,44.2,29.62,SW,225,2.0,5.0,49,0.00,CLR,,0.00,WeatherDisplay:10.37,2013-09-20 18:30:00,
2013-09-20 11:40:00,64.8,44.6,29.62,SW,225,2.0,5.0,48,0.00,CLR,,0.00,WeatherDisplay:10.37,2013-09-20 18:40:00,
2013-09-20 11:45:00,65.1,44.4,29.62,SW,225,0.0,5.0,47,0.00,CLR,,0.00,WeatherDisplay:10.37,2013-09-20 18:45:00,
2013-09-20 11:50:00,65.5,44.1,29.62,SW,225,1.0,5.0,46,0.00,CLR,,0.00,WeatherDisplay:10.37,2013-09-20 18:50:00,
2013-09-20 11:55:00,65.4,44.1,29.62,SW,225,0.0,4.0,46,0.00,CLR,,0.00,WeatherDisplay:10.37,2013-09-20 18:55:00,
2013-09-20 12:00:00,65.7,44.3,29.62,SW,225,0.0,3.0,46,0.00,CLR,,0.00,WeatherDisplay:10.37,2013-09-20 19:00:00,
2013-09-20 12:05:00,65.3,44.0,29.62,SW,225,0.0,0.0,46,0.00,CLR,,0.00,WeatherDisplay:10.37,2013-09-20 19:05:00,
2013-09-20 12:10:00,65.3,44.0,29.62,SW,225,1.0,4.0,46,0.00,CLR,,0.00,WeatherDisplay:10.37,2013-09-20 19:10:00,
2013-09-20 12:15:00,65.6,44.2,29.62,SW,225,0.0,4.0,46,0.00,CLR,,0.00,WeatherDisplay:10.37,2013-09-20 19:15:00,
2013-09-20 12:20:00,65.3,44.0,29.62,SW,225,2.0,4.0,46,0.00,CLR,,0.00,WeatherDisplay:10.37,2013-09-20 19:20:00,
2013-09-20 12:25:00,66.0,44.6,29.62,SW,225,0.0,3.0,46,0.00,CLR,,0.00,WeatherDisplay:10.37,2013-09-20 19:25:00,
2013-09-20 12:30:00,66.0,44.6,29.62,SW,229,2.0,3.0,46,0.00,CLR,,0.00,WeatherDisplay:10.37,2013-09-20 19:30:00,
2013-09-20 12:35:00,66.0,44.1,29.62,WSW,255,0.0,5.0,45,0.00,CLR,,0.00,WeatherDisplay:10.37,2013-09-20 19:35:00,
2013-09-20 12:40:00,66.0,44.1,29.62,West,270,0.0,4.0,45,0.00,CLR,,0.00,WeatherDisplay:10.37,2013-09-20 19:40:00,
2013-09-20 12:45:00,66.6,44.0,29.62,West,270,1.0,4.0,44,0.00,CLR,,0.00,WeatherDisplay:10.37,2013-09-20 19:45:00,
2013-09-20 12:50:00,66.6,44.0,29.62,WNW,288,1.0,6.0,44,0.00,CLR,,0.00,WeatherDisplay:10.37,2013-09-20 19:50:00,
2013-09-20 12:55:00,67.1,44.4,29.62,NE,40,0.0,6.0,44,0.00,CLR,,0.00,WeatherDisplay:10.37,2013-09-20 19:55:00,
2013-09-20 13:00:00,67.1,44.4,29.62,North,6,0.0,5.0,44,0.00,CLR,,0.00,WeatherDisplay:10.37,2013-09-20 20:00:00,
2013-09-20 13:05:00,67.3,44.7,29.62,West,270,0.0,3.0,44,0.00,CLR,,0.00,WeatherDisplay:10.37,2013-09-20 20:05:00,
2013-09-20 13:10:00,67.5,44.8,29.62,West,270,0.0,5.0,44,0.00,CLR,,0.00,WeatherDisplay:10.37,2013-09-20 20:10:00,
2013-09-20 13:15:00,67.6,44.3,29.62,West,270,1.0,4.0,43,0.00,CLR,,0.00,WeatherDisplay:10.37,2013-09-20 20:15:00,
2013-09-20 13:20:00,67.5,44.2,29.62,NNW,342,0.0,5.0,43,0.00,CLR,,0.00,WeatherDisplay:10.37,2013-09-20 20:20:00,
2013-09-20 13:25:00,67.8,43.9,29.62,East,83,1.0,5.0,42,0.00,CLR,,0.00,WeatherDisplay:10.37,2013-09-20 20:25:00,
2013-09-20 13:30:00,67.8,43.9,29.62,East,90,2.0,6.0,42,0.00,CLR,,0.00,WeatherDisplay:10.37,2013-09-20 20:30:00,
2013-09-20 13:35:00,68.0,44.0,29.62,East,90,0.0,4.0,42,0.00,CLR,,0.00,WeatherDisplay:10.37,2013-09-20 20:35:00,
2013-09-20 13:40:00,68.3,44.4,29.62,East,90,0.0,3.0,42,0.00,CLR,,0.00,WeatherDisplay:10.37,2013-09-20 20:40:00,
2013-09-20 13:45:00,68.5,43.9,29.62,East,90,1.0,4.0,41,0.00,CLR,,0.00,WeatherDisplay:10.37,2013-09-20 20:45:00,
2013-09-20 13:50:00,68.7,44.1,29.62,NE,39,0.0,3.0,41,0.00,CLR,,0.00,WeatherDisplay:10.37,2013-09-20 20:50:00,
2013-09-20 13:55:00,68.7,43.4,29.62,NNW,344,1.0,5.0,40,0.00,CLR,,0.00,WeatherDisplay:10.37,2013-09-20 20:55:00,
2013-09-20 14:00:00,68.3,42.4,29.62,West,277,2.0,5.0,39,0.00,CLR,,0.00,WeatherDisplay:10.37,2013-09-20 21:00:00,
2013-09-20 14:05:00,68.0,42.1,29.62,West,270,0.0,5.0,39,0.00,CLR,,0.00,WeatherDisplay:10.37,2013-09-20 21:05:00,
2013-09-20 14:10:00,68.4,43.1,29.62,West,270,1.0,5.0,40,0.00,CLR,,0.00,WeatherDisplay:10.37,2013-09-20 21:10:00,
2013-09-20 14:15:00,68.5,43.2,29.62,West,267,0.0,3.0,40,0.00,CLR,,0.00,WeatherDisplay:10.37,2013-09-20 21:15:00,
2013-09-20 14:20:00,68.7,42.7,29.62,West,259,2.0,6.0,39,0.00,CLR,,0.00,WeatherDisplay:10.37,2013-09-20 21:20:00,
2013-09-20 14:25:00,68.2,42.3,29.62,West,276,0.0,5.0,39,0.00,CLR,,0.00,WeatherDisplay:10.37,2013-09-20 21:25:00,
2013-09-20 14:30:00,68.3,42.4,29.62,WNW,292,2.0,4.0,39,0.00,CLR,,0.00,WeatherDisplay:10.37,2013-09-20 21:30:00,
2013-09-20 14:35:00,68.0,42.7,29.62,NW,313,2.0,6.0,40,0.00,CLR,,0.00,WeatherDisplay:10.37,2013-09-20 21:35:00,
2013-09-20 14:40:00,67.6,41.8,29.62,NW,307,0.0,5.0,39,0.00,CLR,,0.00,WeatherDisplay:10.37,2013-09-20 21:40:00,
2013-09-20 14:45:00,67.3,42.1,29.62,West,272,2.0,5.0,40,0.00,CLR,,0.00,WeatherDisplay:10.37,2013-09-20 21:45:00,
2013-09-20 14:50:00,67.3,42.1,29.62,West,270,2.0,6.0,40,0.00,CLR,,0.00,WeatherDisplay:10.37,2013-09-20 21:50:00,
2013-09-20 14:55:00,67.5,42.9,29.62,West,261,0.0,5.0,41,0.00,CLR,,0.00,WeatherDisplay:10.37,2013-09-20 21:55:00,
2013-09-20 15:00:00,67.9,42.7,29.62,SSW,210,2.0,5.0,40,0.00,CLR,,0.00,WeatherDisplay:10.37,2013-09-20 22:00:00,
2013-09-20 15:05:00,68.1,42.8,29.62,NE,55,0.0,4.0,40,0.00,CLR,,0.00,WeatherDisplay:10.37,2013-09-20 22:05:00,
2013-09-20 15:10:00,68.7,43.4,29.62,NE,40,1.0,6.0,40,0.00,CLR,,0.00,WeatherDisplay:10.37,2013-09-20 22:10:00,
2013-09-20 15:15:00,68.7,42.8,29.62,NNE,18,0.0,4.0,39,0.00,CLR,,0.00,WeatherDisplay:10.37,2013-09-20 22:15:00,
2013-09-20 15:20:00,69.0,43.0,29.62,WNW,302,0.0,6.0,39,0.00,CLR,,0.00,WeatherDisplay:10.37,2013-09-20 22:20:00,
2013-09-20 15:25:00,68.9,42.9,29.62,West,272,0.0,6.0,39,0.00,CLR,,0.00,WeatherDisplay:10.37,2013-09-20 22:25:00,
2013-09-20 15:30:00,69.3,43.2,29.62,West,270,0.0,3.0,39,0.00,CLR,,0.00,WeatherDisplay:10.37,2013-09-20 22:30:00,
2013-09-20 15:35:00,69.3,43.2,29.62,SW,224,0.0,5.0,39,0.00,CLR,,0.00,WeatherDisplay:10.37,2013-09-20 22:35:00,
2013-09-20 15:40:00,69.3,42.6,29.62,South,178,0.0,4.0,38,0.00,CLR,,0.00,WeatherDisplay:10.37,2013-09-20 22:40:00,
2013-09-20 15:45:00,69.3,42.6,29.62,South,180,0.0,4.0,38,0.00,CLR,,0.00,WeatherDisplay:10.37,2013-09-20 22:45:00,
2013-09-20 15:50:00,69.0,42.4,29.59,South,180,0.0,5.0,38,0.00,CLR,,0.00,WeatherDisplay:10.37,2013-09-20 22:50:00,
2013-09-20 15:55:00,68.9,42.2,29.59,South,180,2.0,5.0,38,0.00,CLR,,0.00,WeatherDisplay:10.37,2013-09-20 22:55:00,
2013-09-20 16:00:00,68.9,42.2,29.59,South,180,0.0,5.0,38,0.00,CLR,,0.00,WeatherDisplay:10.37,2013-09-20 23:00:00,
2013-09-20 16:05:00,69.3,41.9,29.59,WSW,242,1.0,5.0,37,0.00,CLR,,0.00,WeatherDisplay:10.37,2013-09-20 23:05:00,
2013-09-20 16:10:00,69.3,41.9,29.59,West,279,0.0,5.0,37,0.00,CLR,,0.00,WeatherDisplay:10.37,2013-09-20 23:10:00,
2013-09-20 16:15:00,69.4,42.0,29.59,West,272,0.0,4.0,37,0.00,CLR,,0.00,WeatherDisplay:10.37,2013-09-20 23:15:00,
2013-09-20 16:20:00,69.7,41.6,29.59,West,270,0.0,3.0,36,0.00,CLR,,0.00,WeatherDisplay:10.37,2013-09-20 23:20:00,
2013-09-20 16:30:00,69.3,41.2,29.59,West,270,1.0,5.0,36,0.00,CLR,,0.00,WeatherDisplay:10.37,2013-09-20 23:30:00,
2013-09-20 16:35:00,69.3,41.2,29.59,West,270,2.0,6.0,36,0.00,CLR,,0.00,WeatherDisplay:10.37,2013-09-20 23:35:00,
2013-09-20 16:40:00,69.1,41.0,29.59,WNW,291,2.0,5.0,36,0.00,CLR,,0.00,WeatherDisplay:10.37,2013-09-20 23:40:00,
2013-09-20 16:50:00,68.6,41.2,29.59,WSW,258,0.0,8.0,37,0.00,CLR,,0.00,WeatherDisplay:10.37,2013-09-20 23:50:00,
2013-09-20 16:55:00,68.7,41.4,29.59,West,270,0.0,3.0,37,0.00,CLR,,0.00,WeatherDisplay:10.37,2013-09-20 23:55:00,
2013-09-20 17:00:00,68.1,40.9,29.59,NE,49,0.0,6.0,37,0.00,CLR,,0.00,WeatherDisplay:10.37,2013-09-21 00:00:00,
2013-09-20 17:05:00,67.3,40.8,29.59,ENE,68,0.0,3.0,38,0.00,CLR,,0.00,WeatherDisplay:10.37,2013-09-21 00:05:00,
2013-09-20 17:10:00,67.4,42.2,29.59,ENE,68,1.0,6.0,40,0.00,CLR,,0.00,WeatherDisplay:10.37,2013-09-21 00:10:00,
2013-09-20 17:15:00,67.5,42.3,29.59,WNW,285,0.0,6.0,40,0.00,CLR,,0.00,WeatherDisplay:10.37,2013-09-21 00:15:00,
2013-09-20 17:20:00,67.2,42.1,29.59,West,270,0.0,5.0,40,0.00,CLR,,0.00,WeatherDisplay:10.37,2013-09-21 00:20:00,
2013-09-20 17:25:00,67.0,42.5,29.59,West,270,1.0,4.0,41,0.00,CLR,,0.00,WeatherDisplay:10.37,2013-09-21 00:25:00,
2013-09-20 17:30:00,66.6,42.1,29.59,West,270,1.0,6.0,41,0.00,CLR,,0.00,WeatherDisplay:10.37,2013-09-21 00:30:00,
2013-09-20 17:40:00,66.6,42.7,29.59,West,270,3.0,5.0,42,0.00,CLR,,0.00,WeatherDisplay:10.37,2013-09-21 00:40:00,
2013-09-20 17:45:00,66.2,43.0,29.59,West,270,0.0,5.0,43,0.00,CLR,,0.00,WeatherDisplay:10.37,2013-09-21 00:45:00,
2013-09-20 17:50:00,66.4,43.2,29.59,West,270,1.0,5.0,43,0.00,CLR,,0.00,WeatherDisplay:10.37,2013-09-21 00:50:00,
2013-09-20 17:55:00,66.3,43.1,29.59,West,270,0.0,2.0,43,0.00,CLR,,0.00,WeatherDisplay:10.37,2013-09-21 00:55:00,
2013-09-20 18:00:00,66.2,43.0,29.59,West,270,0.0,4.0,43,0.00,CLR,,0.00,WeatherDisplay:10.37,2013-09-21 01:00:00,
2013-09-20 18:05:00,66.1,43.0,29.59,West,270,1.0,5.0,43,0.00,CLR,,0.00,WeatherDisplay:10.37,2013-09-21 01:05:00,
2013-09-20 18:10:00,66.1,43.0,29.59,West,270,0.0,5.0,43,0.00,CLR,,0.00,WeatherDisplay:10.37,2013-09-21 01:10:00,
2013-09-20 18:15:00,66.0,42.9,29.59,West,270,1.0,5.0,43,0.00,CLR,,0.00,WeatherDisplay:10.37,2013-09-21 01:15:00,
2013-09-20 18:20:00,65.9,43.4,29.59,West,270,2.0,7.0,44,0.00,CLR,,0.00,WeatherDisplay:10.37,2013-09-21 01:20:00,
2013-09-20 18:25:00,65.7,43.2,29.59,West,270,3.0,6.0,44,0.00,CLR,,0.00,WeatherDisplay:10.37,2013-09-21 01:25:00,
2013-09-20 18:30:00,65.7,43.1,29.59,West,270,0.0,5.0,44,0.00,CLR,,0.00,WeatherDisplay:10.37,2013-09-21 01:30:00,
2013-09-20 18:35:00,65.7,43.7,29.59,West,270,1.0,5.0,45,0.00,CLR,,0.00,WeatherDisplay:10.37,2013-09-21 01:35:00,
2013-09-20 18:40:00,65.5,43.6,29.59,West,270,0.0,6.0,45,0.00,CLR,,0.00,WeatherDisplay:10.37,2013-09-21 01:40:00,
2013-09-20 18:45:00,65.5,43.6,29.59,West,280,0.0,6.0,45,0.00,CLR,,0.00,WeatherDisplay:10.37,2013-09-21 01:45:00,
2013-09-20 18:50:00,65.5,43.6,29.59,WNW,290,0.0,4.0,45,0.00,CLR,,0.00,WeatherDisplay:10.37,2013-09-21 01:50:00,
2013-09-20 18:55:00,65.3,43.4,29.59,WNW,292,0.0,4.0,45,0.00,CLR,,0.00,WeatherDisplay:10.37,2013-09-21 01:55:00,
2013-09-20 19:00:00,65.1,43.2,29.59,WNW,292,0.0,6.0,45,0.00,CLR,,0.00,WeatherDisplay:10.37,2013-09-21 02:00:00,
2013-09-20 19:05:00,64.9,43.1,29.59,WNW,292,0.0,3.0,45,0.00,CLR,,0.00,WeatherDisplay:10.37,2013-09-21 02:05:00,
2013-09-20 19:10:00,64.9,43.1,29.59,WNW,292,0.0,3.0,45,0.00,CLR,,0.00,WeatherDisplay:10.37,2013-09-21 02:10:00,
2013-09-20 19:15:00,64.8,43.5,29.59,West,281,0.0,10.0,46,0.00,CLR,,0.00,WeatherDisplay:10.37,2013-09-21 02:15:00,
2013-09-20 19:20:00,64.9,43.7,29.59,West,279,1.0,6.0,46,0.00,CLR,,0.00,WeatherDisplay:10.37,2013-09-21 02:20:00,
2013-09-20 19:25:00,64.8,43.5,29.59,West,281,0.0,6.0,46,0.00,CLR,,0.00,WeatherDisplay:10.37,2013-09-21 02:25:00,
2013-09-20 19:30:00,64.6,43.3,29.59,NW,308,1.0,6.0,46,0.00,CLR,,0.00,WeatherDisplay:10.37,2013-09-21 02:30:00,
2013-09-20 19:35:00,64.6,43.3,29.59,NW,312,0.0,5.0,46,0.00,CLR,,0.00,WeatherDisplay:10.37,2013-09-21 02:35:00,
2013-09-20 19:40:00,64.6,43.3,29.59,WNW,294,0.0,3.0,46,0.00,CLR,,0.00,WeatherDisplay:10.37,2013-09-21 02:40:00,
2013-09-20 19:45:00,64.6,43.3,29.59,NW,311,2.0,6.0,46,0.00,CLR,,0.00,WeatherDisplay:10.37,2013-09-21 02:45:00,
2013-09-20 19:50:00,64.6,43.3,29.59,NW,311,0.0,5.0,46,0.00,CLR,,0.00,WeatherDisplay:10.37,2013-09-21 02:50:00,
2013-09-20 20:00:00,64.4,43.2,29.59,West,270,0.0,4.0,46,0.00,CLR,,0.00,WeatherDisplay:10.37,2013-09-21 03:00:00,
2013-09-20 20:05:00,64.4,43.7,29.59,West,270,0.0,3.0,47,0.00,CLR,,0.00,WeatherDisplay:10.37,2013-09-21 03:05:00,
2013-09-20 20:10:00,64.4,43.7,29.59,West,270,2.0,5.0,47,0.00,CLR,,0.00,WeatherDisplay:10.37,2013-09-21 03:10:00,
2013-09-20 20:15:00,64.4,43.7,29.59,West,270,2.0,5.0,47,0.00,CLR,,0.00,WeatherDisplay:10.37,2013-09-21 03:15:00,
2013-09-20 20:20:00,64.4,43.2,29.59,West,270,1.0,4.0,46,0.00,CLR,,0.00,WeatherDisplay:10.37,2013-09-21 03:20:00,
2013-09-20 20:25:00,64.4,43.7,29.59,West,270,0.0,4.0,47,0.00,CLR,,0.00,WeatherDisplay:10.37,2013-09-21 03:25:00,
2013-09-20 20:30:00,64.2,43.6,29.59,West,270,0.0,3.0,47,0.00,CLR,,0.00,WeatherDisplay:10.37,2013-09-21 03:30:00,
2013-09-20 20:35:00,64.2,43.0,29.62,West,270,0.0,3.0,46,0.00,CLR,,0.00,WeatherDisplay:10.37,2013-09-21 03:35:00,
2013-09-20 20:40:00,64.2,43.0,29.62,West,270,0.0,0.0,46,0.00,CLR,,0.00,WeatherDisplay:10.37,2013-09-21 03:40:00,
2013-09-20 20:45:00,64.0,43.4,29.62,West,270,0.0,5.0,47,0.00,CLR,,0.00,WeatherDisplay:10.37,2013-09-21 03:45:00,
2013-09-20 20:50:00,63.9,43.2,29.59,West,270,0.0,0.0,47,0.00,CLR,,0.00,WeatherDisplay:10.37,2013-09-21 03:50:00,
2013-09-20 20:55:00,63.9,43.2,29.59,West,270,0.0,4.0,47,0.00,CLR,,0.00,WeatherDisplay:10.37,2013-09-21 03:55:00,
2013-09-20 21:00:00,63.9,43.2,29.59,West,270,0.0,3.0,47,0.00,CLR,,0.00,WeatherDisplay:10.37,2013-09-21 04:00:00,
2013-09-20 21:05:00,63.9,43.2,29.59,West,270,0.0,6.0,47,0.00,CLR,,0.00,WeatherDisplay:10.37,2013-09-21 04:05:00,
2013-09-20 21:15:00,63.7,43.6,29.59,West,270,0.0,7.0,48,0.00,CLR,,0.00,WeatherDisplay:10.37,2013-09-21 04:15:00,
2013-09-20 21:20:00,63.5,43.4,29.62,West,270,1.0,6.0,48,0.00,CLR,,0.00,WeatherDisplay:10.37,2013-09-21 04:20:00,
2013-09-20 21:25:00,63.5,43.4,29.62,West,270,0.0,4.0,48,0.00,CLR,,0.00,WeatherDisplay:10.37,2013-09-21 04:25:00,
2013-09-20 21:30:00,63.5,43.4,29.62,West,270,1.0,6.0,48,0.00,CLR,,0.00,WeatherDisplay:10.37,2013-09-21 04:30:00,
2013-09-20 21:35:00,63.5,44.0,29.59,West,270,0.0,3.0,49,0.00,CLR,,0.00,WeatherDisplay:10.37,2013-09-21 04:35:00,
2013-09-20 21:40:00,63.5,44.0,29.59,West,270,1.0,3.0,49,0.00,CLR,,0.00,WeatherDisplay:10.37,2013-09-21 04:40:00,
2013-09-20 21:45:00,63.5,44.0,29.59,WNW,288,2.0,5.0,49,0.00,CLR,,0.00,WeatherDisplay:10.37,2013-09-21 04:45:00,
2013-09-20 21:50:00,63.5,44.0,29.62,NW,308,0.0,5.0,49,0.00,CLR,,0.00,WeatherDisplay:10.37,2013-09-21 04:50:00,
2013-09-20 21:55:00,63.5,44.5,29.62,WNW,297,2.0,5.0,50,0.00,CLR,,0.00,WeatherDisplay:10.37,2013-09-21 04:55:00,
2013-09-20 22:00:00,63.5,44.5,29.62,West,278,0.0,5.0,50,0.00,CLR,,0.00,WeatherDisplay:10.37,2013-09-21 05:00:00,
2013-09-20 22:05:00,63.7,44.7,29.59,West,270,0.0,4.0,50,0.00,CLR,,0.00,WeatherDisplay:10.37,2013-09-21 05:05:00,
2013-09-20 22:10:00,63.7,45.2,29.59,West,270,0.0,6.0,51,0.00,CLR,,0.00,WeatherDisplay:10.37,2013-09-21 05:10:00,
2013-09-20 22:15:00,63.7,45.2,29.59,West,270,2.0,4.0,51,0.00,CLR,,0.00,WeatherDisplay:10.37,2013-09-21 05:15:00,
2013-09-20 22:20:00,63.7,44.7,29.62,West,270,2.0,5.0,50,0.00,CLR,,0.00,WeatherDisplay:10.37,2013-09-21 05:20:00,
2013-09-20 22:25:00,63.7,44.7,29.62,West,270,0.0,5.0,50,0.00,CLR,,0.00,WeatherDisplay:10.37,2013-09-21 05:25:00,
2013-09-20 22:30:00,63.7,44.7,29.62,West,270,1.0,6.0,50,0.00,CLR,,0.00,WeatherDisplay:10.37,2013-09-21 05:30:00,
2013-09-20 22:35:00,63.7,44.7,29.59,West,270,0.0,3.0,50,0.00,CLR,,0.00,WeatherDisplay:10.37,2013-09-21 05:35:00,
2013-09-20 22:40:00,63.7,44.7,29.59,West,270,0.0,5.0,50,0.00,CLR,,0.00,WeatherDisplay:10.37,2013-09-21 05:40:00,
2013-09-20 22:45:00,63.5,44.5,29.59,West,261,0.0,3.0,50,0.00,CLR,,0.00,WeatherDisplay:10.37,2013-09-21 05:45:00,
2013-09-20 22:50:00,63.5,44.5,29.62,WSW,257,0.0,6.0,50,0.00,CLR,,0.00,WeatherDisplay:10.37,2013-09-21 05:50:00,
2013-09-20 22:55:00,63.5,44.5,29.62,West,267,0.0,4.0,50,0.00,CLR,,0.00,WeatherDisplay:10.37,2013-09-21 05:55:00,
2013-09-20 23:00:00,63.5,44.5,29.62,WNW,295,0.0,3.0,50,0.00,CLR,,0.00,WeatherDisplay:10.37,2013-09-21 06:00:00,
2013-09-20 23:05:00,63.5,45.0,29.59,WNW,283,0.0,9.0,51,0.00,CLR,,0.00,WeatherDisplay:10.37,2013-09-21 06:05:00,
2013-09-20 23:10:00,63.5,45.0,29.59,West,270,0.0,5.0,51,0.00,CLR,,0.00,WeatherDisplay:10.37,2013-09-21 06:10:00,
2013-09-20 23:15:00,63.5,45.0,29.59,West,270,1.0,5.0,51,0.00,CLR,,0.00,WeatherDisplay:10.37,2013-09-21 06:15:00,
2013-09-20 23:20:00,63.5,45.0,29.59,West,270,2.0,5.0,51,0.00,CLR,,0.00,WeatherDisplay:10.37,2013-09-21 06:20:00,
2013-09-20 23:25:00,63.5,45.0,29.59,West,270,0.0,5.0,51,0.00,CLR,,0.00,WeatherDisplay:10.37,2013-09-21 06:25:00,
2013-09-20 23:30:00,63.5,44.5,29.59,West,270,0.0,0.0,50,0.00,CLR,,0.00,WeatherDisplay:10.37,2013-09-21 06:30:00,
2013-09-20 23:35:00,63.5,44.5,29.59,West,270,0.0,3.0,50,0.00,CLR,,0.00,WeatherDisplay:10.37,2013-09-21 06:35:00,
2013-09-20 23:40:00,63.5,44.5,29.59,West,270,0.0,3.0,50,0.00,CLR,,0.00,WeatherDisplay:10.37,2013-09-21 06:40:00,
2013-09-20 23:45:00,63.7,44.7,29.59,West,270,0.0,2.0,50,0.00,CLR,,0.00,WeatherDisplay:10.37,2013-09-21 06:45:00,
2013-09-20 23:50:00,63.7,44.7,29.59,West,270,0.0,2.0,50,0.00,CLR,,0.00,WeatherDisplay:10.37,2013-09-21 06:50:00,
2013-09-20 23:55:00,63.7,44.2,29.59,West,270,0.0,2.0,49,0.00,CLR,,0.00,WeatherDisplay:10.37,2013-09-21 06:55:00,